createdAt,value
2023-05-08T00:01:11.546Z,0.50
2023-05-08T00:03:39.160Z,0.40
2023-05-08T00:06:08.301Z,0.38
2023-05-08T00:08:37.399Z,0.47
2023-05-08T00:11:04.688Z,0.30
2023-05-08T00:13:31.935Z,0.45
2023-05-08T00:15:59.183Z,0.43
2023-05-08T00:18:26.642Z,0.45
2023-05-08T00:20:54.123Z,0.43
2023-05-08T00:23:22.301Z,0.50
2023-05-08T00:25:49.665Z,0.40
2023-05-08T00:28:17.036Z,0.60
2023-05-08T00:30:44.436Z,0.40
2023-05-08T00:33:12.055Z,0.93
2023-05-08T00:35:41.618Z,0.70
2023-05-08T00:38:08.801Z,0.57
2023-05-08T00:40:36.645Z,0.75
2023-05-08T00:43:04.264Z,0.68
2023-05-08T00:45:35.410Z,0.90
2023-05-08T00:48:02.867Z,0.80
2023-05-08T00:50:30.742Z,0.60
2023-05-08T00:52:59.120Z,0.65
2023-05-08T00:55:26.334Z,0.40
2023-05-08T00:57:53.645Z,0.40
2023-05-08T01:00:21.653Z,0.47
2023-05-08T01:02:48.971Z,0.50
2023-05-08T01:05:16.334Z,0.60
2023-05-08T01:07:43.662Z,0.40
2023-05-08T01:10:11.265Z,0.50
2023-05-08T01:12:41.682Z,0.63
2023-05-08T01:15:09.172Z,0.60
2023-05-08T01:17:45.654Z,0.50
2023-05-08T01:20:13.208Z,0.43
2023-05-08T01:22:59.241Z,0.40
2023-05-08T01:25:45.560Z,0.50
2023-05-08T01:28:31.494Z,0.57
2023-05-08T01:30:58.661Z,0.50
2023-05-08T01:33:30.400Z,0.50
2023-05-08T01:36:15.592Z,0.60
2023-05-08T01:39:03.063Z,0.50
2023-05-08T01:41:30.958Z,0.43
2023-05-08T01:44:09.843Z,0.35
2023-05-08T01:46:37.539Z,0.60
2023-05-08T01:49:07.646Z,0.40
2023-05-08T01:51:38.220Z,0.52
2023-05-08T01:54:09.467Z,0.50
2023-05-08T01:56:39.000Z,0.45
2023-05-08T01:59:07.058Z,0.40
2023-05-08T02:01:34.904Z,0.50
2023-05-08T02:04:03.471Z,0.50
2023-05-08T02:06:31.695Z,0.50
2023-05-08T02:09:00.421Z,0.45
2023-05-08T02:11:28.496Z,0.50
2023-05-08T02:13:56.348Z,0.55
2023-05-08T02:16:24.192Z,0.50
2023-05-08T02:18:53.248Z,0.63
2023-05-08T02:21:20.989Z,0.50
2023-05-08T02:23:48.895Z,1.20
2023-05-08T02:26:16.858Z,2.15
2023-05-08T02:28:44.421Z,2.30
2023-05-08T02:31:12.823Z,2.42
2023-05-08T02:33:42.281Z,2.70
2023-05-08T02:36:09.920Z,3.38
2023-05-08T02:38:39.750Z,4.40
2023-05-08T02:41:07.429Z,3.78
2023-05-08T02:43:34.750Z,3.80
2023-05-08T02:46:01.951Z,3.17
2023-05-08T02:48:44.216Z,2.83
2023-05-08T02:51:17.686Z,2.60
2023-05-08T02:53:52.170Z,3.17
2023-05-08T02:56:22.214Z,2.70
2023-05-08T02:59:18.691Z,2.17
2023-05-08T03:01:59.546Z,2.08
2023-05-08T03:04:29.920Z,2.38
2023-05-08T03:06:58.402Z,2.17
2023-05-08T03:09:27.589Z,2.17
2023-05-08T03:12:00.540Z,1.65
2023-05-08T03:14:29.328Z,1.65
2023-05-08T03:16:57.946Z,1.40
2023-05-08T03:19:28.318Z,1.20
2023-05-08T03:21:56.640Z,0.98
2023-05-08T03:24:24.900Z,1.23
2023-05-08T03:26:52.371Z,1.40
2023-05-08T03:29:19.812Z,1.60
2023-05-08T03:31:48.083Z,1.75
2023-05-08T03:34:16.543Z,1.17
2023-05-08T03:36:43.824Z,1.70
2023-05-08T03:39:11.335Z,1.42
2023-05-08T03:41:38.643Z,1.40
2023-05-08T03:44:06.038Z,1.40
2023-05-08T03:46:33.928Z,1.67
2023-05-08T03:49:01.687Z,1.73
2023-05-08T03:51:29.227Z,1.40
2023-05-08T03:53:56.483Z,1.17
2023-05-08T03:56:25.846Z,1.20
2023-05-08T03:59:25.816Z,1.02
2023-05-08T04:01:59.870Z,1.00
2023-05-08T04:04:40.894Z,1.02
2023-05-08T04:07:27.014Z,1.35
2023-05-08T04:10:06.454Z,1.52
2023-05-08T04:12:50.199Z,1.30
2023-05-08T04:15:22.339Z,1.15
2023-05-08T04:18:00.809Z,1.30
2023-05-08T04:20:28.823Z,1.40
2023-05-08T04:22:56.584Z,1.38
2023-05-08T04:25:23.986Z,1.13
2023-05-08T04:27:51.696Z,1.10
2023-05-08T04:30:18.983Z,1.00
2023-05-08T04:32:46.957Z,1.05
2023-05-08T04:35:14.617Z,1.40
2023-05-08T04:37:45.649Z,1.45
2023-05-08T04:40:13.157Z,1.40
2023-05-08T04:42:42.995Z,1.17
2023-05-08T04:45:10.887Z,1.13
2023-05-08T04:47:38.396Z,1.10
2023-05-08T04:50:05.970Z,1.23
2023-05-08T04:52:33.155Z,1.15
2023-05-08T04:55:00.545Z,1.10
2023-05-08T04:57:27.799Z,1.00
2023-05-08T04:59:55.038Z,1.33
2023-05-08T05:02:22.328Z,1.10
2023-05-08T05:04:49.532Z,1.70
2023-05-08T05:07:16.745Z,1.42
2023-05-08T05:09:44.394Z,1.52
2023-05-08T05:12:11.660Z,1.30
2023-05-08T05:14:38.928Z,1.77
2023-05-08T05:17:06.261Z,2.60
2023-05-08T05:19:33.556Z,2.38
2023-05-08T05:22:00.772Z,1.88
2023-05-08T05:24:28.117Z,2.10
2023-05-08T05:26:55.337Z,2.25
2023-05-08T05:29:22.542Z,2.53
2023-05-08T05:31:49.860Z,2.63
2023-05-08T05:34:17.119Z,2.67
2023-05-08T05:36:44.596Z,2.10
2023-05-08T05:39:11.873Z,2.75
2023-05-08T05:41:39.184Z,2.78
2023-05-08T05:44:06.724Z,2.78
2023-05-08T05:46:33.982Z,2.97
2023-05-08T05:49:01.205Z,2.83
2023-05-08T05:51:28.535Z,2.95
2023-05-08T05:53:57.212Z,3.13
2023-05-08T05:56:24.428Z,4.20
2023-05-08T05:58:51.789Z,3.50
2023-05-08T06:01:19.028Z,3.83
2023-05-08T06:03:46.434Z,3.75
2023-05-08T06:06:13.679Z,3.97
2023-05-08T06:08:40.972Z,3.22
2023-05-08T06:11:08.334Z,3.38
2023-05-08T06:13:35.590Z,4.10
2023-05-08T06:16:02.812Z,3.97
2023-05-08T06:18:30.041Z,3.40
2023-05-08T06:20:58.047Z,3.65
2023-05-08T06:23:25.783Z,2.70
2023-05-08T06:25:53.242Z,3.38
2023-05-08T06:28:22.463Z,3.10
2023-05-08T06:30:49.818Z,3.60
2023-05-08T06:33:17.083Z,3.30
2023-05-08T06:35:47.840Z,3.80
2023-05-08T06:38:15.286Z,3.65
2023-05-08T06:40:45.825Z,3.20
2023-05-08T06:43:13.336Z,3.35
2023-05-08T06:45:41.221Z,3.58
2023-05-08T06:48:08.752Z,3.55
2023-05-08T06:50:39.284Z,3.47
2023-05-08T06:53:07.193Z,3.30
2023-05-08T06:55:34.694Z,4.32
2023-05-08T06:58:01.914Z,4.32
2023-05-08T07:00:29.270Z,3.58
2023-05-08T07:02:56.558Z,4.18
2023-05-08T07:05:23.889Z,3.92
2023-05-08T07:07:54.021Z,3.95
2023-05-08T07:10:23.012Z,3.35
2023-05-08T07:12:50.683Z,3.28
2023-05-08T07:15:26.147Z,3.28
2023-05-08T07:17:54.424Z,3.25
2023-05-08T07:20:22.053Z,2.85
2023-05-08T07:22:49.364Z,2.35
2023-05-08T07:25:16.950Z,2.58
2023-05-08T07:27:44.266Z,2.00
2023-05-08T07:30:11.745Z,1.92
2023-05-08T07:32:39.463Z,1.50
2023-05-08T07:35:11.077Z,2.00
2023-05-08T07:37:38.965Z,3.10
2023-05-08T07:40:06.469Z,2.42
2023-05-08T07:42:39.658Z,2.35
2023-05-08T07:45:07.432Z,2.10
2023-05-08T07:47:35.047Z,1.90
2023-05-08T07:50:02.555Z,1.67
2023-05-08T07:52:29.795Z,1.92
2023-05-08T07:54:58.089Z,2.10
2023-05-08T07:57:25.331Z,2.00
2023-05-08T07:59:52.529Z,2.20
2023-05-08T08:02:19.823Z,1.90
2023-05-08T08:04:47.134Z,1.98
2023-05-08T08:07:14.347Z,1.55
2023-05-08T08:09:41.532Z,1.35
2023-05-08T08:12:09.330Z,1.90
2023-05-08T08:14:36.550Z,2.10
2023-05-08T08:17:03.944Z,1.85
2023-05-08T08:19:31.323Z,2.33
2023-05-08T08:21:58.516Z,2.67
2023-05-08T08:24:25.730Z,3.42
2023-05-08T08:26:52.983Z,2.58
2023-05-08T08:29:20.279Z,2.60
2023-05-08T08:31:47.532Z,1.85
2023-05-08T08:34:15.005Z,1.55
2023-05-08T08:36:42.213Z,1.70
2023-05-08T08:39:11.968Z,1.92
2023-05-08T08:41:40.684Z,2.10
2023-05-08T08:44:08.083Z,2.45
2023-05-08T08:46:36.074Z,2.60
2023-05-08T08:49:05.456Z,2.53
2023-05-08T08:51:33.747Z,1.92
2023-05-08T08:54:10.152Z,1.70
2023-05-08T08:56:38.443Z,1.52
2023-05-08T08:59:06.853Z,1.50
2023-05-08T09:01:39.497Z,1.67
2023-05-08T09:04:07.325Z,2.25
2023-05-08T09:06:39.004Z,3.22
2023-05-08T09:09:06.578Z,2.30
2023-05-08T09:11:33.820Z,2.30
2023-05-08T09:14:01.082Z,2.67
2023-05-08T09:16:28.964Z,2.55
2023-05-08T09:18:56.254Z,3.42
2023-05-08T09:21:23.521Z,3.20
2023-05-08T09:24:04.410Z,2.78
2023-05-08T09:26:32.600Z,3.10
2023-05-08T09:29:09.074Z,2.35
2023-05-08T09:31:37.274Z,1.90
2023-05-08T09:34:04.775Z,3.10
2023-05-08T09:36:32.085Z,2.75
2023-05-08T09:38:59.343Z,2.92
2023-05-08T09:41:26.732Z,2.90
2023-05-08T09:44:04.185Z,2.88
2023-05-08T09:46:32.865Z,2.10
2023-05-08T09:49:00.934Z,2.05
2023-05-08T09:51:29.679Z,2.47
2023-05-08T09:53:57.732Z,2.90
2023-05-08T09:56:41.256Z,2.70
2023-05-08T09:59:23.993Z,3.42
2023-05-08T10:01:51.357Z,3.40
2023-05-08T10:04:18.862Z,1.77
2023-05-08T10:06:57.557Z,2.42
2023-05-08T10:09:26.155Z,2.42
2023-05-08T10:11:55.626Z,2.50
2023-05-08T10:14:23.925Z,4.03
2023-05-08T10:16:55.153Z,3.30
2023-05-08T10:19:23.679Z,3.30
2023-05-08T10:21:53.025Z,3.60
2023-05-08T10:24:21.682Z,3.05
2023-05-08T10:27:07.103Z,3.25
2023-05-08T10:29:43.434Z,3.33
2023-05-08T10:32:11.440Z,3.72
2023-05-08T10:34:41.919Z,3.83
2023-05-08T10:37:11.098Z,3.55
2023-05-08T10:39:38.376Z,3.85
2023-05-08T10:42:05.784Z,4.63
2023-05-08T10:44:33.058Z,4.03
2023-05-08T10:47:14.412Z,3.65
2023-05-08T10:49:41.636Z,3.55
2023-05-08T10:52:31.896Z,3.95
2023-05-08T10:55:02.270Z,3.55
2023-05-08T10:57:29.502Z,2.90
2023-05-08T10:59:56.783Z,3.92
2023-05-08T11:02:31.673Z,3.65
2023-05-08T11:05:21.067Z,4.07
2023-05-08T11:07:54.764Z,4.50
2023-05-08T11:10:23.030Z,4.70
2023-05-08T11:12:50.983Z,4.78
2023-05-08T11:15:18.442Z,5.75
2023-05-08T11:17:54.442Z,5.57
2023-05-08T11:20:24.641Z,5.35
2023-05-08T11:22:51.849Z,5.03
2023-05-08T11:25:19.322Z,5.38
2023-05-08T11:27:49.674Z,4.65
2023-05-08T11:30:19.841Z,5.90
2023-05-08T11:32:59.603Z,4.93
2023-05-08T11:35:46.678Z,4.95
2023-05-08T11:38:19.524Z,4.50
2023-05-08T11:40:59.139Z,4.05
2023-05-08T11:43:38.383Z,3.60
2023-05-08T11:46:14.824Z,4.18
2023-05-08T11:48:42.135Z,5.18
2023-05-08T11:51:09.642Z,4.47
2023-05-08T11:53:37.549Z,3.70
2023-05-08T11:56:05.127Z,3.80
2023-05-08T11:58:32.673Z,3.80
2023-05-08T12:01:00.118Z,3.10
2023-05-08T12:03:27.483Z,3.47
2023-05-08T12:05:58.633Z,3.75
2023-05-08T12:08:26.374Z,4.13
2023-05-08T12:10:54.405Z,4.50
2023-05-08T12:13:22.755Z,5.10
2023-05-08T12:15:54.344Z,4.75
2023-05-08T12:18:22.263Z,3.88
2023-05-08T12:20:53.446Z,5.05
2023-05-08T12:23:20.980Z,3.97
2023-05-08T12:25:48.245Z,3.78
2023-05-08T12:28:16.435Z,4.20
2023-05-08T12:30:43.739Z,3.53
2023-05-08T12:33:11.810Z,3.05
2023-05-08T12:35:39.830Z,3.78
2023-05-08T12:38:07.897Z,4.35
2023-05-08T12:40:45.255Z,2.95
2023-05-08T12:43:12.988Z,3.25
2023-05-08T12:45:41.256Z,3.47
2023-05-08T12:48:18.312Z,2.85
2023-05-08T12:50:46.427Z,2.53
2023-05-08T12:53:18.574Z,2.35
2023-05-08T12:55:55.884Z,2.53
2023-05-08T12:58:30.528Z,2.30
2023-05-08T13:01:05.543Z,2.83
2023-05-08T13:03:34.211Z,2.60
2023-05-08T13:06:01.648Z,2.47
2023-05-08T13:08:38.870Z,6.32
2023-05-08T13:11:06.954Z,5.70
2023-05-08T13:13:35.395Z,5.50
2023-05-08T13:16:06.629Z,4.90
2023-05-08T13:18:36.807Z,5.03
2023-05-08T13:21:04.290Z,5.57
2023-05-08T13:23:31.608Z,5.95
2023-05-08T13:25:58.839Z,5.00
2023-05-08T13:28:26.060Z,6.97
2023-05-08T13:30:53.294Z,7.47
2023-05-08T13:33:20.528Z,6.63
2023-05-08T13:35:48.326Z,4.43
2023-05-08T13:38:15.637Z,6.03
2023-05-08T13:40:43.047Z,5.85
2023-05-08T13:43:10.268Z,5.07
2023-05-08T13:45:37.707Z,3.85
2023-05-08T13:48:05.118Z,2.88
2023-05-08T13:50:32.371Z,2.58
2023-05-08T13:52:59.605Z,4.10
2023-05-08T13:55:26.871Z,4.72
2023-05-08T13:57:54.126Z,4.55
2023-05-08T14:00:21.402Z,3.60
2023-05-08T14:02:50.662Z,3.35
2023-05-08T14:05:19.727Z,2.30
2023-05-08T14:07:47.158Z,3.10
2023-05-08T14:10:16.980Z,2.55
2023-05-08T14:12:44.286Z,2.53
2023-05-08T14:15:12.235Z,2.75
2023-05-08T14:17:39.794Z,2.38
2023-05-08T14:20:08.051Z,3.38
2023-05-08T14:22:36.372Z,4.38
2023-05-08T14:25:03.597Z,3.15
2023-05-08T14:27:30.811Z,2.55
2023-05-08T14:29:58.143Z,1.90
2023-05-08T14:32:25.429Z,2.50
2023-05-08T14:34:52.728Z,3.40
2023-05-08T14:37:20.218Z,3.30
2023-05-08T14:39:47.443Z,3.35
2023-05-08T14:42:22.797Z,3.28
2023-05-08T14:44:50.894Z,3.00
2023-05-08T14:47:18.332Z,3.22
2023-05-08T14:49:45.618Z,2.90
2023-05-08T14:52:12.883Z,3.25
2023-05-08T14:54:40.302Z,2.92
2023-05-08T14:57:07.778Z,2.45
2023-05-08T14:59:35.090Z,3.13
2023-05-08T15:02:02.466Z,3.67
2023-05-08T15:04:29.793Z,3.63
2023-05-08T15:06:57.148Z,2.88
2023-05-08T15:09:24.485Z,3.80
2023-05-08T15:11:51.685Z,3.97
2023-05-08T15:14:18.940Z,3.03
2023-05-08T15:16:46.643Z,3.05
2023-05-08T15:19:13.940Z,3.33
2023-05-08T15:21:41.208Z,2.40
2023-05-08T15:24:08.738Z,2.33
2023-05-08T15:26:35.957Z,2.33
2023-05-08T15:29:03.198Z,2.58
2023-05-08T15:31:30.444Z,2.30
2023-05-08T15:33:57.660Z,2.33
2023-05-08T15:36:25.365Z,2.47
2023-05-08T15:38:54.090Z,2.28
2023-05-08T15:41:21.827Z,2.20
2023-05-08T15:43:49.078Z,2.55
2023-05-08T15:46:16.546Z,3.90
2023-05-08T15:48:43.845Z,3.38
2023-05-08T15:51:11.654Z,2.95
2023-05-08T15:53:38.981Z,2.38
2023-05-08T15:56:06.526Z,2.42
2023-05-08T15:58:34.686Z,2.30
2023-05-08T16:01:01.950Z,2.40
2023-05-08T16:03:29.244Z,2.28
2023-05-08T16:05:56.624Z,2.15
2023-05-08T16:08:23.849Z,2.10
2023-05-08T16:10:51.049Z,1.83
2023-05-08T16:13:18.296Z,2.10
2023-05-08T16:15:45.648Z,2.15
2023-05-08T16:18:12.890Z,1.92
2023-05-08T16:20:42.969Z,2.00
2023-05-08T16:23:10.457Z,1.92
2023-05-08T16:25:37.781Z,2.10
2023-05-08T16:28:05.049Z,1.77
2023-05-08T16:30:32.287Z,2.20
2023-05-08T16:32:59.672Z,3.15
2023-05-08T16:35:27.145Z,3.60
2023-05-08T16:37:54.558Z,2.03
2023-05-08T16:40:21.777Z,2.50
2023-05-08T16:42:49.277Z,2.80
2023-05-08T16:45:16.514Z,3.17
2023-05-08T16:47:43.836Z,4.20
2023-05-08T16:50:11.414Z,2.70
2023-05-08T16:52:38.719Z,3.30
2023-05-08T16:55:06.164Z,3.13
2023-05-08T16:57:33.438Z,3.35
2023-05-08T17:00:01.366Z,3.60
2023-05-08T17:02:28.686Z,2.63
2023-05-08T17:04:55.946Z,2.20
2023-05-08T17:07:23.150Z,2.03
2023-05-08T17:09:53.090Z,1.63
2023-05-08T17:12:20.822Z,1.73
2023-05-08T17:14:48.297Z,1.60
2023-05-08T17:17:15.575Z,1.60
2023-05-08T17:19:43.737Z,1.77
2023-05-08T17:22:11.692Z,1.50
2023-05-08T17:24:38.903Z,1.60
2023-05-08T17:27:09.384Z,1.50
2023-05-08T17:29:36.659Z,1.50
2023-05-08T17:32:03.996Z,1.50
2023-05-08T17:34:31.400Z,1.20
2023-05-08T17:36:58.618Z,1.10
2023-05-08T17:39:25.914Z,1.10
2023-05-08T17:41:54.142Z,1.45
2023-05-08T17:44:21.368Z,1.40
2023-05-08T17:46:48.715Z,1.20
2023-05-08T17:49:19.278Z,1.40
2023-05-08T17:51:46.889Z,1.50
2023-05-08T17:54:14.098Z,1.27
2023-05-08T17:56:41.349Z,1.45
2023-05-08T17:59:08.572Z,1.15
2023-05-08T18:01:35.914Z,1.40
2023-05-08T18:04:03.278Z,1.30
2023-05-08T18:06:30.487Z,1.50
2023-05-08T18:08:57.696Z,1.20
2023-05-08T18:11:26.097Z,1.30
2023-05-08T18:13:53.853Z,1.30
2023-05-08T18:16:21.871Z,1.35
2023-05-08T18:18:49.879Z,1.40
2023-05-08T18:21:17.188Z,1.30
2023-05-08T18:23:44.829Z,1.00
2023-05-08T18:26:16.246Z,1.30
2023-05-08T18:28:44.077Z,1.20
2023-05-08T18:31:11.848Z,1.10
2023-05-08T18:33:39.254Z,1.17
2023-05-08T18:36:07.218Z,1.13
2023-05-08T18:38:35.659Z,1.00
2023-05-08T18:41:04.000Z,0.90
2023-05-08T18:43:31.440Z,1.00
2023-05-08T18:46:00.580Z,0.95
2023-05-08T18:48:29.398Z,0.80
2023-05-08T18:50:58.621Z,1.60
2023-05-08T18:53:26.070Z,2.00
2023-05-08T18:55:53.377Z,1.80
2023-05-08T18:58:20.719Z,2.15
2023-05-08T19:00:48.023Z,1.88
2023-05-08T19:03:15.610Z,1.15
2023-05-08T19:05:42.979Z,1.02
2023-05-08T19:08:10.249Z,1.10
2023-05-08T19:10:37.515Z,1.00
2023-05-08T19:13:05.367Z,0.80
2023-05-08T19:15:32.778Z,1.00
2023-05-08T19:18:00.264Z,1.02
2023-05-08T19:20:27.710Z,0.90
2023-05-08T19:22:55.110Z,1.00
2023-05-08T19:25:22.438Z,1.13
2023-05-08T19:27:49.839Z,1.42
2023-05-08T19:30:17.143Z,1.65
2023-05-08T19:32:44.686Z,1.67
2023-05-08T19:35:11.985Z,1.23
2023-05-08T19:37:39.245Z,1.10
2023-05-08T19:40:07.077Z,1.30
2023-05-08T19:42:34.356Z,1.10
2023-05-08T19:45:01.778Z,1.02
2023-05-08T19:47:29.037Z,0.90
2023-05-08T19:49:56.421Z,1.00
2023-05-08T19:52:23.652Z,0.90
2023-05-08T19:54:51.142Z,0.90
2023-05-08T19:57:18.488Z,0.90
2023-05-08T19:59:45.694Z,0.80
2023-05-08T20:02:13.105Z,1.00
2023-05-08T20:04:57.501Z,0.68
2023-05-08T20:07:27.603Z,0.98
2023-05-08T20:09:54.873Z,0.60
2023-05-08T20:12:22.175Z,0.80
2023-05-08T20:14:49.499Z,1.00
2023-05-08T20:17:16.790Z,0.70
2023-05-08T20:22:11.542Z,0.98
2023-05-08T20:24:38.742Z,0.80
2023-05-08T20:27:05.958Z,1.10
2023-05-08T20:29:33.207Z,2.00
2023-05-08T20:32:00.532Z,1.90
2023-05-08T20:34:27.818Z,2.08
2023-05-08T20:36:57.797Z,2.35
2023-05-08T20:39:24.990Z,2.35
2023-05-08T20:41:52.248Z,2.55
2023-05-08T20:44:19.498Z,1.63
2023-05-08T20:46:46.747Z,1.90
2023-05-08T20:49:14.047Z,1.45
2023-05-08T20:51:41.299Z,1.48
2023-05-08T20:54:08.494Z,1.35
2023-05-08T20:56:35.918Z,2.03
2023-05-08T20:59:03.345Z,2.45
2023-05-08T21:01:30.658Z,2.53
2023-05-08T21:03:57.891Z,2.33
2023-05-08T21:06:25.124Z,2.58
2023-05-08T21:08:52.362Z,2.33
2023-05-08T21:11:19.632Z,2.30
2023-05-08T21:13:46.989Z,2.80
2023-05-08T21:16:14.299Z,2.72
2023-05-08T21:18:41.606Z,2.60
2023-05-08T21:21:15.808Z,1.80
2023-05-08T21:23:43.029Z,1.58
2023-05-08T21:26:10.379Z,2.28
2023-05-08T21:28:37.644Z,2.35
2023-05-08T21:31:05.909Z,2.90
2023-05-08T21:33:36.667Z,2.47
2023-05-08T21:36:03.962Z,3.00
2023-05-08T21:38:31.189Z,2.55
2023-05-08T21:41:05.396Z,2.67
2023-05-08T21:43:32.607Z,3.10
2023-05-08T21:45:59.998Z,2.58
2023-05-08T21:48:27.309Z,2.50
2023-05-08T21:50:54.628Z,2.70
2023-05-08T21:53:21.918Z,2.50
2023-05-08T21:55:49.188Z,1.95
2023-05-08T21:58:16.413Z,2.20
2023-05-08T22:00:43.629Z,1.58
2023-05-08T22:03:11.087Z,1.50
2023-05-08T22:05:38.479Z,1.58
2023-05-08T22:08:05.856Z,2.30
2023-05-08T22:10:33.100Z,2.50
2023-05-08T22:13:01.533Z,1.88
2023-05-08T22:15:30.656Z,1.63
2023-05-08T22:17:58.689Z,1.33
2023-05-08T22:20:26.136Z,2.00
2023-05-08T22:22:53.436Z,2.20
2023-05-08T22:25:22.013Z,2.60
2023-05-08T22:27:49.361Z,3.17
2023-05-08T22:30:16.574Z,3.58
2023-05-08T22:32:43.875Z,2.92
2023-05-08T22:35:11.347Z,2.75
2023-05-08T22:37:38.680Z,2.95
2023-05-08T22:40:06.248Z,3.03
2023-05-08T22:42:33.486Z,2.60
2023-05-08T22:45:00.730Z,1.80
2023-05-08T22:47:28.869Z,1.50
2023-05-08T22:49:56.512Z,1.40
2023-05-08T22:52:23.735Z,1.40
2023-05-08T22:54:50.958Z,1.35
2023-05-08T22:57:18.185Z,2.30
2023-05-08T22:59:45.510Z,1.70
2023-05-08T23:02:12.754Z,1.73
2023-05-08T23:04:40.088Z,1.90
2023-05-08T23:07:07.321Z,1.58
2023-05-08T23:09:34.568Z,1.30
2023-05-08T23:12:01.761Z,1.42
2023-05-08T23:14:29.013Z,1.00
2023-05-08T23:16:56.324Z,1.48
2023-05-08T23:19:23.646Z,0.93
2023-05-08T23:21:50.885Z,1.00
2023-05-08T23:24:19.870Z,0.90
2023-05-08T23:26:49.595Z,0.95
2023-05-08T23:29:16.796Z,1.05
2023-05-08T23:31:44.105Z,1.50
2023-05-08T23:34:11.326Z,1.40
2023-05-08T23:36:38.560Z,1.20
2023-05-08T23:39:07.126Z,1.25
2023-05-08T23:41:34.343Z,1.20
2023-05-08T23:44:01.581Z,1.00
2023-05-08T23:46:28.877Z,1.10
2023-05-08T23:48:56.172Z,0.82
2023-05-08T23:51:23.540Z,0.95
2023-05-08T23:53:50.945Z,0.88
2023-05-08T23:56:18.584Z,1.30
2023-05-08T23:58:45.775Z,1.50
